sensor_id;sensor_type;location;lat;lon;timestamp;P1;durP1;ratioP1;P2;durP2;ratioP2
7377;SDS011;3730;50.856;12.776;2023-03-13T00:01:55;18.17;;;4.93;;
7377;SDS011;3730;50.856;12.776;2023-03-13T00:04:21;17.53;;;4.73;;
7377;SDS011;3730;50.856;12.776;2023-03-13T00:06:47;18.70;;;4.70;;
7377;SDS011;3730;50.856;12.776;2023-03-13T00:09:13;20.00;;;4.90;;
7377;SDS011;3730;50.856;12.776;2023-03-13T00:11:40;15.10;;;5.27;;
7377;SDS011;3730;50.856;12.776;2023-03-13T00:14:07;14.70;;;4.70;;
7377;SDS011;3730;50.856;12.776;2023-03-13T00:16:33;14.87;;;4.57;;
7377;SDS011;3730;50.856;12.776;2023-03-13T00:18:59;13.87;;;4.23;;
7377;SDS011;3730;50.856;12.776;2023-03-13T00:21:26;11.97;;;4.03;;
7377;SDS011;3730;50.856;12.776;2023-03-13T00:23:53;14.03;;;4.57;;
7377;SDS011;3730;50.856;12.776;2023-03-13T00:26:20;17.37;;;4.47;;
7377;SDS011;3730;50.856;12.776;2023-03-13T00:28:48;14.83;;;4.50;;
7377;SDS011;3730;50.856;12.776;2023-03-13T00:31:18;14.00;;;4.17;;
7377;SDS011;3730;50.856;12.776;2023-03-13T00:33:46;16.47;;;4.17;;
7377;SDS011;3730;50.856;12.776;2023-03-13T00:36:15;13.77;;;4.53;;
7377;SDS011;3730;50.856;12.776;2023-03-13T00:38:48;13.23;;;3.80;;
7377;SDS011;3730;50.856;12.776;2023-03-13T00:41:16;15.10;;;4.23;;
7377;SDS011;3730;50.856;12.776;2023-03-13T00:43:44;14.30;;;3.73;;
7377;SDS011;3730;50.856;12.776;2023-03-13T00:46:11;14.40;;;4.00;;
7377;SDS011;3730;50.856;12.776;2023-03-13T00:48:38;17.70;;;4.37;;
7377;SDS011;3730;50.856;12.776;2023-03-13T00:51:04;14.00;;;4.40;;
7377;SDS011;3730;50.856;12.776;2023-03-13T00:53:30;14.40;;;4.30;;
7377;SDS011;3730;50.856;12.776;2023-03-13T00:55:57;11.93;;;3.87;;
7377;SDS011;3730;50.856;12.776;2023-03-13T00:58:25;15.20;;;4.60;;
7377;SDS011;3730;50.856;12.776;2023-03-13T01:00:52;13.20;;;3.83;;
7377;SDS011;3730;50.856;12.776;2023-03-13T01:03:18;15.33;;;4.20;;
7377;SDS011;3730;50.856;12.776;2023-03-13T01:05:45;14.30;;;4.97;;
7377;SDS011;3730;50.856;12.776;2023-03-13T01:08:20;14.37;;;4.33;;
7377;SDS011;3730;50.856;12.776;2023-03-13T01:10:45;17.50;;;4.17;;
7377;SDS011;3730;50.856;12.776;2023-03-13T01:13:11;16.30;;;4.20;;
7377;SDS011;3730;50.856;12.776;2023-03-13T01:15:36;16.60;;;4.23;;
7377;SDS011;3730;50.856;12.776;2023-03-13T01:18:02;19.57;;;4.80;;
7377;SDS011;3730;50.856;12.776;2023-03-13T01:20:28;15.97;;;5.33;;
7377;SDS011;3730;50.856;12.776;2023-03-13T01:22:54;15.47;;;4.50;;
7377;SDS011;3730;50.856;12.776;2023-03-13T01:25:20;21.07;;;4.63;;
7377;SDS011;3730;50.856;12.776;2023-03-13T01:27:45;18.37;;;4.30;;
7377;SDS011;3730;50.856;12.776;2023-03-13T01:30:11;13.73;;;3.97;;
7377;SDS011;3730;50.856;12.776;2023-03-13T01:32:37;18.60;;;4.20;;
7377;SDS011;3730;50.856;12.776;2023-03-13T01:35:03;12.30;;;3.80;;
7377;SDS011;3730;50.856;12.776;2023-03-13T01:37:29;18.13;;;4.10;;
7377;SDS011;3730;50.856;12.776;2023-03-13T01:39:54;21.97;;;4.83;;
7377;SDS011;3730;50.856;12.776;2023-03-13T01:42:20;17.50;;;4.57;;
7377;SDS011;3730;50.856;12.776;2023-03-13T01:44:53;17.97;;;4.43;;
7377;SDS011;3730;50.856;12.776;2023-03-13T01:47:20;16.30;;;4.03;;
7377;SDS011;3730;50.856;12.776;2023-03-13T01:49:46;18.20;;;4.53;;
7377;SDS011;3730;50.856;12.776;2023-03-13T01:52:17;13.17;;;3.73;;
7377;SDS011;3730;50.856;12.776;2023-03-13T01:57:34;20.00;;;4.47;;
7377;SDS011;3730;50.856;12.776;2023-03-13T02:00:23;16.90;;;4.00;;
7377;SDS011;3730;50.856;12.776;2023-03-13T02:02:57;13.70;;;3.73;;
7377;SDS011;3730;50.856;12.776;2023-03-13T02:05:27;18.07;;;3.70;;
7377;SDS011;3730;50.856;12.776;2023-03-13T02:07:56;14.60;;;3.80;;
7377;SDS011;3730;50.856;12.776;2023-03-13T02:10:37;14.80;;;3.63;;
7377;SDS011;3730;50.856;12.776;2023-03-13T02:13:08;13.97;;;3.50;;
7377;SDS011;3730;50.856;12.776;2023-03-13T02:15:38;19.63;;;4.43;;
7377;SDS011;3730;50.856;12.776;2023-03-13T02:18:05;16.57;;;4.03;;
7377;SDS011;3730;50.856;12.776;2023-03-13T02:20:31;14.90;;;3.93;;
7377;SDS011;3730;50.856;12.776;2023-03-13T02:23:02;16.23;;;4.13;;
7377;SDS011;3730;50.856;12.776;2023-03-13T02:25:49;13.23;;;3.57;;
7377;SDS011;3730;50.856;12.776;2023-03-13T02:28:22;19.93;;;4.40;;
7377;SDS011;3730;50.856;12.776;2023-03-13T02:30:53;14.37;;;4.30;;
7377;SDS011;3730;50.856;12.776;2023-03-13T02:33:20;15.23;;;3.70;;
7377;SDS011;3730;50.856;12.776;2023-03-13T02:35:50;14.73;;;3.33;;
7377;SDS011;3730;50.856;12.776;2023-03-13T02:38:18;17.13;;;4.20;;
7377;SDS011;3730;50.856;12.776;2023-03-13T02:40:47;15.47;;;3.40;;
7377;SDS011;3730;50.856;12.776;2023-03-13T02:43:17;17.70;;;3.80;;
7377;SDS011;3730;50.856;12.776;2023-03-13T02:46:05;18.67;;;3.87;;
7377;SDS011;3730;50.856;12.776;2023-03-13T02:48:40;16.03;;;4.27;;
7377;SDS011;3730;50.856;12.776;2023-03-13T02:53:48;16.00;;;3.70;;
7377;SDS011;3730;50.856;12.776;2023-03-13T02:56:16;15.67;;;3.80;;
7377;SDS011;3730;50.856;12.776;2023-03-13T02:58:45;13.87;;;3.73;;
7377;SDS011;3730;50.856;12.776;2023-03-13T03:01:10;15.37;;;3.57;;
7377;SDS011;3730;50.856;12.776;2023-03-13T03:03:36;13.10;;;3.20;;
7377;SDS011;3730;50.856;12.776;2023-03-13T03:06:03;13.60;;;3.30;;
7377;SDS011;3730;50.856;12.776;2023-03-13T03:08:30;13.67;;;3.73;;
7377;SDS011;3730;50.856;12.776;2023-03-13T03:10:56;20.43;;;4.77;;
7377;SDS011;3730;50.856;12.776;2023-03-13T03:13:21;18.30;;;4.40;;
7377;SDS011;3730;50.856;12.776;2023-03-13T03:15:47;18.00;;;3.53;;
7377;SDS011;3730;50.856;12.776;2023-03-13T03:18:13;14.90;;;3.93;;
7377;SDS011;3730;50.856;12.776;2023-03-13T03:20:38;19.27;;;4.17;;
7377;SDS011;3730;50.856;12.776;2023-03-13T03:23:04;9.90;;;3.47;;
7377;SDS011;3730;50.856;12.776;2023-03-13T03:25:30;16.63;;;3.80;;
7377;SDS011;3730;50.856;12.776;2023-03-13T03:27:55;13.40;;;3.30;;
7377;SDS011;3730;50.856;12.776;2023-03-13T03:30:21;14.27;;;4.13;;
7377;SDS011;3730;50.856;12.776;2023-03-13T03:32:46;13.80;;;3.57;;
7377;SDS011;3730;50.856;12.776;2023-03-13T03:35:12;14.70;;;3.70;;
7377;SDS011;3730;50.856;12.776;2023-03-13T03:37:37;14.80;;;3.20;;
7377;SDS011;3730;50.856;12.776;2023-03-13T03:40:03;13.83;;;3.40;;
7377;SDS011;3730;50.856;12.776;2023-03-13T03:42:30;16.30;;;4.03;;
7377;SDS011;3730;50.856;12.776;2023-03-13T03:44:56;13.10;;;3.63;;
7377;SDS011;3730;50.856;12.776;2023-03-13T03:47:22;12.70;;;3.50;;
7377;SDS011;3730;50.856;12.776;2023-03-13T03:49:47;13.27;;;3.77;;
7377;SDS011;3730;50.856;12.776;2023-03-13T03:52:13;14.93;;;4.20;;
7377;SDS011;3730;50.856;12.776;2023-03-13T03:54:39;10.87;;;3.50;;
7377;SDS011;3730;50.856;12.776;2023-03-13T03:57:04;20.93;;;4.00;;
7377;SDS011;3730;50.856;12.776;2023-03-13T03:59:30;13.57;;;3.77;;
7377;SDS011;3730;50.856;12.776;2023-03-13T04:01:56;11.90;;;3.00;;
7377;SDS011;3730;50.856;12.776;2023-03-13T04:04:21;13.70;;;3.33;;
7377;SDS011;3730;50.856;12.776;2023-03-13T04:06:47;12.80;;;3.50;;
7377;SDS011;3730;50.856;12.776;2023-03-13T04:09:13;12.23;;;3.77;;
7377;SDS011;3730;50.856;12.776;2023-03-13T04:11:38;9.70;;;3.60;;
7377;SDS011;3730;50.856;12.776;2023-03-13T04:14:04;11.30;;;3.60;;
7377;SDS011;3730;50.856;12.776;2023-03-13T04:16:29;11.33;;;3.23;;
7377;SDS011;3730;50.856;12.776;2023-03-13T04:18:55;13.40;;;3.20;;
7377;SDS011;3730;50.856;12.776;2023-03-13T04:21:21;16.60;;;3.77;;
7377;SDS011;3730;50.856;12.776;2023-03-13T04:23:46;14.57;;;3.23;;
7377;SDS011;3730;50.856;12.776;2023-03-13T04:26:12;16.50;;;3.40;;
7377;SDS011;3730;50.856;12.776;2023-03-13T04:28:37;9.23;;;3.40;;
7377;SDS011;3730;50.856;12.776;2023-03-13T04:31:03;11.43;;;3.70;;
7377;SDS011;3730;50.856;12.776;2023-03-13T04:33:29;13.60;;;3.50;;
7377;SDS011;3730;50.856;12.776;2023-03-13T04:35:54;14.70;;;3.60;;
7377;SDS011;3730;50.856;12.776;2023-03-13T04:38:20;10.30;;;3.23;;
7377;SDS011;3730;50.856;12.776;2023-03-13T04:40:46;15.80;;;3.53;;
7377;SDS011;3730;50.856;12.776;2023-03-13T04:43:12;15.73;;;3.67;;
7377;SDS011;3730;50.856;12.776;2023-03-13T04:45:38;11.23;;;2.90;;
7377;SDS011;3730;50.856;12.776;2023-03-13T04:48:03;13.60;;;3.67;;
7377;SDS011;3730;50.856;12.776;2023-03-13T04:50:29;13.70;;;3.40;;
7377;SDS011;3730;50.856;12.776;2023-03-13T04:52:55;11.10;;;2.93;;
7377;SDS011;3730;50.856;12.776;2023-03-13T04:55:20;10.37;;;2.87;;
7377;SDS011;3730;50.856;12.776;2023-03-13T04:57:46;12.67;;;3.13;;
7377;SDS011;3730;50.856;12.776;2023-03-13T05:00:11;13.20;;;3.10;;
7377;SDS011;3730;50.856;12.776;2023-03-13T05:02:37;12.73;;;3.17;;
7377;SDS011;3730;50.856;12.776;2023-03-13T05:05:03;11.90;;;3.13;;
7377;SDS011;3730;50.856;12.776;2023-03-13T05:07:29;12.03;;;3.43;;
7377;SDS011;3730;50.856;12.776;2023-03-13T05:09:55;13.67;;;3.37;;
7377;SDS011;3730;50.856;12.776;2023-03-13T05:12:21;9.20;;;3.17;;
7377;SDS011;3730;50.856;12.776;2023-03-13T05:14:47;16.33;;;3.37;;
7377;SDS011;3730;50.856;12.776;2023-03-13T05:17:14;9.73;;;2.50;;
7377;SDS011;3730;50.856;12.776;2023-03-13T05:19:41;11.27;;;2.87;;
7377;SDS011;3730;50.856;12.776;2023-03-13T05:22:07;12.57;;;3.57;;
7377;SDS011;3730;50.856;12.776;2023-03-13T05:24:33;14.00;;;2.83;;
7377;SDS011;3730;50.856;12.776;2023-03-13T05:26:59;13.30;;;3.13;;
7377;SDS011;3730;50.856;12.776;2023-03-13T05:29:26;13.67;;;3.60;;
7377;SDS011;3730;50.856;12.776;2023-03-13T05:31:52;15.53;;;3.67;;
7377;SDS011;3730;50.856;12.776;2023-03-13T05:34:18;13.70;;;3.47;;
7377;SDS011;3730;50.856;12.776;2023-03-13T05:36:44;11.50;;;2.93;;
7377;SDS011;3730;50.856;12.776;2023-03-13T05:39:10;12.07;;;3.50;;
7377;SDS011;3730;50.856;12.776;2023-03-13T05:41:36;10.70;;;3.10;;
7377;SDS011;3730;50.856;12.776;2023-03-13T05:44:02;9.97;;;3.30;;
7377;SDS011;3730;50.856;12.776;2023-03-13T05:46:28;12.70;;;3.40;;
7377;SDS011;3730;50.856;12.776;2023-03-13T05:48:54;13.20;;;3.03;;
7377;SDS011;3730;50.856;12.776;2023-03-13T05:51:20;8.87;;;2.90;;
7377;SDS011;3730;50.856;12.776;2023-03-13T05:53:47;10.43;;;3.20;;
7377;SDS011;3730;50.856;12.776;2023-03-13T05:56:13;12.60;;;3.70;;
7377;SDS011;3730;50.856;12.776;2023-03-13T05:58:39;13.03;;;3.43;;
7377;SDS011;3730;50.856;12.776;2023-03-13T06:01:08;13.30;;;3.13;;
7377;SDS011;3730;50.856;12.776;2023-03-13T06:03:34;9.33;;;3.50;;
7377;SDS011;3730;50.856;12.776;2023-03-13T06:06:00;16.77;;;3.40;;
7377;SDS011;3730;50.856;12.776;2023-03-13T06:08:26;11.67;;;3.27;;
7377;SDS011;3730;50.856;12.776;2023-03-13T06:10:53;8.90;;;2.80;;
7377;SDS011;3730;50.856;12.776;2023-03-13T06:13:19;6.40;;;2.33;;
7377;SDS011;3730;50.856;12.776;2023-03-13T06:15:51;9.77;;;2.90;;
7377;SDS011;3730;50.856;12.776;2023-03-13T06:18:17;11.57;;;3.20;;
7377;SDS011;3730;50.856;12.776;2023-03-13T06:20:43;12.40;;;2.97;;
7377;SDS011;3730;50.856;12.776;2023-03-13T06:23:09;9.00;;;2.73;;
7377;SDS011;3730;50.856;12.776;2023-03-13T06:25:35;8.47;;;2.60;;
7377;SDS011;3730;50.856;12.776;2023-03-13T06:28:02;9.40;;;2.83;;
7377;SDS011;3730;50.856;12.776;2023-03-13T06:30:28;7.93;;;2.67;;
7377;SDS011;3730;50.856;12.776;2023-03-13T06:32:54;13.77;;;3.00;;
7377;SDS011;3730;50.856;12.776;2023-03-13T06:35:20;8.80;;;2.50;;
7377;SDS011;3730;50.856;12.776;2023-03-13T06:37:46;9.90;;;2.67;;
7377;SDS011;3730;50.856;12.776;2023-03-13T06:40:12;14.13;;;3.10;;
7377;SDS011;3730;50.856;12.776;2023-03-13T06:42:38;11.43;;;3.17;;
7377;SDS011;3730;50.856;12.776;2023-03-13T06:45:04;12.00;;;2.77;;
7377;SDS011;3730;50.856;12.776;2023-03-13T06:47:30;8.57;;;2.40;;
7377;SDS011;3730;50.856;12.776;2023-03-13T06:49:57;6.30;;;2.50;;
7377;SDS011;3730;50.856;12.776;2023-03-13T06:52:23;9.53;;;2.37;;
7377;SDS011;3730;50.856;12.776;2023-03-13T06:54:49;10.23;;;2.80;;
7377;SDS011;3730;50.856;12.776;2023-03-13T06:57:15;11.33;;;3.10;;
7377;SDS011;3730;50.856;12.776;2023-03-13T06:59:41;8.97;;;2.80;;
7377;SDS011;3730;50.856;12.776;2023-03-13T07:02:10;7.17;;;2.57;;
7377;SDS011;3730;50.856;12.776;2023-03-13T07:04:36;5.90;;;2.20;;
7377;SDS011;3730;50.856;12.776;2023-03-13T07:07:02;9.53;;;2.57;;
7377;SDS011;3730;50.856;12.776;2023-03-13T07:09:28;6.93;;;2.40;;
7377;SDS011;3730;50.856;12.776;2023-03-13T07:11:54;6.87;;;2.10;;
7377;SDS011;3730;50.856;12.776;2023-03-13T07:14:22;9.63;;;2.23;;
7377;SDS011;3730;50.856;12.776;2023-03-13T07:16:48;9.67;;;2.60;;
7377;SDS011;3730;50.856;12.776;2023-03-13T07:19:14;4.37;;;1.63;;
7377;SDS011;3730;50.856;12.776;2023-03-13T07:21:41;5.27;;;1.90;;
7377;SDS011;3730;50.856;12.776;2023-03-13T07:24:08;5.33;;;1.77;;
7377;SDS011;3730;50.856;12.776;2023-03-13T07:26:34;3.57;;;1.53;;
7377;SDS011;3730;50.856;12.776;2023-03-13T07:29:00;5.10;;;1.87;;
7377;SDS011;3730;50.856;12.776;2023-03-13T07:31:26;4.60;;;1.50;;
7377;SDS011;3730;50.856;12.776;2023-03-13T07:33:54;6.37;;;1.90;;
7377;SDS011;3730;50.856;12.776;2023-03-13T07:36:23;4.80;;;1.53;;
7377;SDS011;3730;50.856;12.776;2023-03-13T07:38:49;6.40;;;1.90;;
7377;SDS011;3730;50.856;12.776;2023-03-13T07:41:16;5.43;;;1.60;;
7377;SDS011;3730;50.856;12.776;2023-03-13T07:43:42;2.47;;;1.20;;
7377;SDS011;3730;50.856;12.776;2023-03-13T07:46:10;4.77;;;1.23;;
7377;SDS011;3730;50.856;12.776;2023-03-13T07:48:37;2.93;;;1.40;;
7377;SDS011;3730;50.856;12.776;2023-03-13T07:51:05;4.63;;;1.53;;
7377;SDS011;3730;50.856;12.776;2023-03-13T07:53:31;2.27;;;1.23;;
7377;SDS011;3730;50.856;12.776;2023-03-13T07:56:01;5.90;;;1.93;;
7377;SDS011;3730;50.856;12.776;2023-03-13T07:58:28;4.50;;;1.73;;
7377;SDS011;3730;50.856;12.776;2023-03-13T08:00:55;3.83;;;1.30;;
7377;SDS011;3730;50.856;12.776;2023-03-13T08:03:21;3.57;;;1.30;;
7377;SDS011;3730;50.856;12.776;2023-03-13T08:05:47;2.90;;;1.23;;
7377;SDS011;3730;50.856;12.776;2023-03-13T08:08:13;3.43;;;1.20;;
7377;SDS011;3730;50.856;12.776;2023-03-13T08:10:39;4.40;;;1.47;;
7377;SDS011;3730;50.856;12.776;2023-03-13T08:13:05;3.07;;;1.10;;
7377;SDS011;3730;50.856;12.776;2023-03-13T08:15:31;2.03;;;1.10;;
7377;SDS011;3730;50.856;12.776;2023-03-13T08:17:57;2.90;;;1.33;;
7377;SDS011;3730;50.856;12.776;2023-03-13T08:20:23;3.83;;;1.40;;
7377;SDS011;3730;50.856;12.776;2023-03-13T08:22:49;2.10;;;1.27;;
7377;SDS011;3730;50.856;12.776;2023-03-13T08:25:15;3.17;;;1.33;;
7377;SDS011;3730;50.856;12.776;2023-03-13T08:27:41;2.03;;;1.00;;
7377;SDS011;3730;50.856;12.776;2023-03-13T08:30:07;3.50;;;1.40;;
7377;SDS011;3730;50.856;12.776;2023-03-13T08:32:34;3.50;;;1.27;;
7377;SDS011;3730;50.856;12.776;2023-03-13T08:35:01;6.67;;;1.70;;
7377;SDS011;3730;50.856;12.776;2023-03-13T08:37:27;3.80;;;1.50;;
7377;SDS011;3730;50.856;12.776;2023-03-13T08:39:53;2.70;;;1.20;;
7377;SDS011;3730;50.856;12.776;2023-03-13T08:42:20;3.90;;;1.30;;
7377;SDS011;3730;50.856;12.776;2023-03-13T08:44:46;3.33;;;1.60;;
7377;SDS011;3730;50.856;12.776;2023-03-13T08:47:12;3.00;;;1.40;;
7377;SDS011;3730;50.856;12.776;2023-03-13T08:49:38;1.87;;;1.33;;
7377;SDS011;3730;50.856;12.776;2023-03-13T08:52:05;3.43;;;1.30;;
7377;SDS011;3730;50.856;12.776;2023-03-13T08:54:31;2.67;;;1.20;;
7377;SDS011;3730;50.856;12.776;2023-03-13T08:56:58;3.70;;;1.50;;
7377;SDS011;3730;50.856;12.776;2023-03-13T08:59:24;2.87;;;1.20;;
7377;SDS011;3730;50.856;12.776;2023-03-13T09:01:50;3.30;;;1.40;;
7377;SDS011;3730;50.856;12.776;2023-03-13T09:04:16;2.47;;;1.70;;
7377;SDS011;3730;50.856;12.776;2023-03-13T09:06:42;3.00;;;1.10;;
7377;SDS011;3730;50.856;12.776;2023-03-13T09:09:09;3.17;;;1.20;;
7377;SDS011;3730;50.856;12.776;2023-03-13T09:11:35;2.50;;;1.47;;
7377;SDS011;3730;50.856;12.776;2023-03-13T09:14:02;2.23;;;1.50;;
7377;SDS011;3730;50.856;12.776;2023-03-13T09:16:28;4.40;;;1.40;;
7377;SDS011;3730;50.856;12.776;2023-03-13T09:18:55;2.33;;;1.47;;
7377;SDS011;3730;50.856;12.776;2023-03-13T09:21:29;3.37;;;1.80;;
7377;SDS011;3730;50.856;12.776;2023-03-13T09:23:56;2.00;;;1.43;;
7377;SDS011;3730;50.856;12.776;2023-03-13T09:26:23;4.87;;;1.47;;
7377;SDS011;3730;50.856;12.776;2023-03-13T09:28:49;3.37;;;1.60;;
7377;SDS011;3730;50.856;12.776;2023-03-13T09:31:17;2.07;;;1.30;;
7377;SDS011;3730;50.856;12.776;2023-03-13T09:33:45;2.43;;;1.50;;
7377;SDS011;3730;50.856;12.776;2023-03-13T09:36:12;2.47;;;1.60;;
7377;SDS011;3730;50.856;12.776;2023-03-13T09:38:38;2.57;;;1.70;;
7377;SDS011;3730;50.856;12.776;2023-03-13T09:41:10;2.07;;;1.67;;
7377;SDS011;3730;50.856;12.776;2023-03-13T09:43:50;2.80;;;1.60;;
7377;SDS011;3730;50.856;12.776;2023-03-13T09:46:23;5.20;;;1.77;;
7377;SDS011;3730;50.856;12.776;2023-03-13T09:48:52;3.17;;;1.30;;
7377;SDS011;3730;50.856;12.776;2023-03-13T09:56:33;3.13;;;1.40;;
7377;SDS011;3730;50.856;12.776;2023-03-13T09:59:08;2.83;;;1.73;;
7377;SDS011;3730;50.856;12.776;2023-03-13T10:01:36;1.93;;;1.30;;
7377;SDS011;3730;50.856;12.776;2023-03-13T10:04:05;2.33;;;1.10;;
7377;SDS011;3730;50.856;12.776;2023-03-13T10:06:34;1.93;;;1.23;;
7377;SDS011;3730;50.856;12.776;2023-03-13T10:09:00;3.00;;;1.20;;
7377;SDS011;3730;50.856;12.776;2023-03-13T10:11:33;2.27;;;1.30;;
7377;SDS011;3730;50.856;12.776;2023-03-13T10:14:17;1.17;;;1.07;;
7377;SDS011;3730;50.856;12.776;2023-03-13T10:17:02;2.20;;;1.37;;
7377;SDS011;3730;50.856;12.776;2023-03-13T10:19:30;1.80;;;1.10;;
7377;SDS011;3730;50.856;12.776;2023-03-13T10:21:57;1.53;;;1.20;;
7377;SDS011;3730;50.856;12.776;2023-03-13T10:24:35;2.67;;;1.23;;
7377;SDS011;3730;50.856;12.776;2023-03-13T10:27:02;2.00;;;1.20;;
7377;SDS011;3730;50.856;12.776;2023-03-13T10:29:29;2.10;;;1.20;;
7377;SDS011;3730;50.856;12.776;2023-03-13T10:34:22;2.10;;;1.37;;
7377;SDS011;3730;50.856;12.776;2023-03-13T10:36:49;1.63;;;0.80;;
7377;SDS011;3730;50.856;12.776;2023-03-13T10:39:20;2.20;;;1.30;;
7377;SDS011;3730;50.856;12.776;2023-03-13T10:41:49;1.57;;;1.20;;
7377;SDS011;3730;50.856;12.776;2023-03-13T10:44:20;1.60;;;1.27;;
7377;SDS011;3730;50.856;12.776;2023-03-13T10:46:48;1.93;;;1.20;;
7377;SDS011;3730;50.856;12.776;2023-03-13T10:49:15;2.53;;;1.10;;
7377;SDS011;3730;50.856;12.776;2023-03-13T10:51:46;1.73;;;1.40;;
7377;SDS011;3730;50.856;12.776;2023-03-13T10:54:22;1.57;;;0.90;;
7377;SDS011;3730;50.856;12.776;2023-03-13T10:57:06;2.97;;;1.37;;
7377;SDS011;3730;50.856;12.776;2023-03-13T10:59:32;1.90;;;0.93;;
7377;SDS011;3730;50.856;12.776;2023-03-13T11:02:12;2.03;;;1.40;;
7377;SDS011;3730;50.856;12.776;2023-03-13T11:04:42;1.77;;;1.10;;
7377;SDS011;3730;50.856;12.776;2023-03-13T11:07:24;3.90;;;1.20;;
7377;SDS011;3730;50.856;12.776;2023-03-13T11:10:24;1.97;;;1.13;;
7377;SDS011;3730;50.856;12.776;2023-03-13T11:12:47;2.20;;;1.30;;
7377;SDS011;3730;50.856;12.776;2023-03-13T11:15:15;1.33;;;1.17;;
7377;SDS011;3730;50.856;12.776;2023-03-13T11:17:43;3.73;;;1.30;;
7377;SDS011;3730;50.856;12.776;2023-03-13T11:27:54;1.03;;;1.00;;
7377;SDS011;3730;50.856;12.776;2023-03-13T11:33:04;1.37;;;1.10;;
7377;SDS011;3730;50.856;12.776;2023-03-13T11:35:36;2.90;;;1.40;;
7377;SDS011;3730;50.856;12.776;2023-03-13T11:38:11;1.37;;;1.10;;
7377;SDS011;3730;50.856;12.776;2023-03-13T11:40:44;1.20;;;1.10;;
7377;SDS011;3730;50.856;12.776;2023-03-13T11:43:15;2.13;;;1.33;;
7377;SDS011;3730;50.856;12.776;2023-03-13T11:48:36;2.50;;;1.10;;
7377;SDS011;3730;50.856;12.776;2023-03-13T11:53:45;3.20;;;1.30;;
7377;SDS011;3730;50.856;12.776;2023-03-13T12:06:11;2.40;;;1.33;;
7377;SDS011;3730;50.856;12.776;2023-03-13T12:08:41;2.27;;;1.50;;
7377;SDS011;3730;50.856;12.776;2023-03-13T12:11:16;2.50;;;1.30;;
7377;SDS011;3730;50.856;12.776;2023-03-13T12:13:50;5.73;;;1.70;;
7377;SDS011;3730;50.856;12.776;2023-03-13T12:16:20;1.87;;;1.13;;
7377;SDS011;3730;50.856;12.776;2023-03-13T12:18:46;5.60;;;1.90;;
7377;SDS011;3730;50.856;12.776;2023-03-13T12:21:21;1.43;;;1.20;;
7377;SDS011;3730;50.856;12.776;2023-03-13T12:24:10;1.20;;;1.10;;
7377;SDS011;3730;50.856;12.776;2023-03-13T12:37:27;1.47;;;1.03;;
7377;SDS011;3730;50.856;12.776;2023-03-13T12:40:09;1.83;;;1.30;;
7377;SDS011;3730;50.856;12.776;2023-03-13T12:45:21;2.73;;;1.10;;
7377;SDS011;3730;50.856;12.776;2023-03-13T12:53:08;1.23;;;1.10;;
7377;SDS011;3730;50.856;12.776;2023-03-13T13:00:38;2.30;;;1.70;;
7377;SDS011;3730;50.856;12.776;2023-03-13T13:03:08;3.20;;;1.53;;
7377;SDS011;3730;50.856;12.776;2023-03-13T13:05:35;5.90;;;2.27;;
7377;SDS011;3730;50.856;12.776;2023-03-13T13:08:01;1.60;;;1.50;;
7377;SDS011;3730;50.856;12.776;2023-03-13T13:10:28;3.10;;;1.37;;
7377;SDS011;3730;50.856;12.776;2023-03-13T13:15:44;1.47;;;1.37;;
7377;SDS011;3730;50.856;12.776;2023-03-13T13:18:27;1.30;;;1.13;;
7377;SDS011;3730;50.856;12.776;2023-03-13T13:23:34;3.63;;;1.20;;
7377;SDS011;3730;50.856;12.776;2023-03-13T13:28:47;2.87;;;1.30;;
7377;SDS011;3730;50.856;12.776;2023-03-13T13:33:57;3.37;;;1.10;;
7377;SDS011;3730;50.856;12.776;2023-03-13T13:36:27;4.73;;;1.30;;
7377;SDS011;3730;50.856;12.776;2023-03-13T13:38:53;4.70;;;1.30;;
7377;SDS011;3730;50.856;12.776;2023-03-13T13:41:32;2.03;;;1.40;;
7377;SDS011;3730;50.856;12.776;2023-03-13T13:46:43;2.83;;;1.40;;
7377;SDS011;3730;50.856;12.776;2023-03-13T13:49:14;1.53;;;1.40;;
7377;SDS011;3730;50.856;12.776;2023-03-13T13:51:42;2.40;;;1.13;;
7377;SDS011;3730;50.856;12.776;2023-03-13T13:54:51;4.83;;;1.40;;
7377;SDS011;3730;50.856;12.776;2023-03-13T13:57:19;3.10;;;1.60;;
7377;SDS011;3730;50.856;12.776;2023-03-13T13:59:46;2.10;;;1.67;;
7377;SDS011;3730;50.856;12.776;2023-03-13T14:02:15;5.00;;;1.90;;
7377;SDS011;3730;50.856;12.776;2023-03-13T14:04:42;3.77;;;1.90;;
7377;SDS011;3730;50.856;12.776;2023-03-13T14:07:14;1.60;;;1.20;;
7377;SDS011;3730;50.856;12.776;2023-03-13T14:12:30;3.00;;;1.40;;
7377;SDS011;3730;50.856;12.776;2023-03-13T14:17:42;2.93;;;1.60;;
7377;SDS011;3730;50.856;12.776;2023-03-13T14:23:02;3.77;;;1.43;;
7377;SDS011;3730;50.856;12.776;2023-03-13T14:28:26;1.63;;;1.30;;
7377;SDS011;3730;50.856;12.776;2023-03-13T14:30:53;3.77;;;1.43;;
7377;SDS011;3730;50.856;12.776;2023-03-13T14:33:20;2.07;;;1.23;;
7377;SDS011;3730;50.856;12.776;2023-03-13T14:35:46;1.63;;;1.20;;
7377;SDS011;3730;50.856;12.776;2023-03-13T14:38:16;4.00;;;1.40;;
7377;SDS011;3730;50.856;12.776;2023-03-13T14:40:43;1.80;;;1.33;;
7377;SDS011;3730;50.856;12.776;2023-03-13T14:43:17;1.73;;;1.30;;
7377;SDS011;3730;50.856;12.776;2023-03-13T14:45:43;1.77;;;1.33;;
7377;SDS011;3730;50.856;12.776;2023-03-13T14:48:22;3.93;;;1.67;;
7377;SDS011;3730;50.856;12.776;2023-03-13T14:50:53;2.23;;;1.60;;
7377;SDS011;3730;50.856;12.776;2023-03-13T14:53:20;2.73;;;1.63;;
7377;SDS011;3730;50.856;12.776;2023-03-13T14:55:47;1.57;;;1.47;;
7377;SDS011;3730;50.856;12.776;2023-03-13T15:00:46;2.37;;;1.90;;
7377;SDS011;3730;50.856;12.776;2023-03-13T15:05:44;4.87;;;2.13;;
7377;SDS011;3730;50.856;12.776;2023-03-13T15:08:14;3.07;;;1.73;;
7377;SDS011;3730;50.856;12.776;2023-03-13T15:10:40;2.50;;;1.63;;
7377;SDS011;3730;50.856;12.776;2023-03-13T15:13:40;3.80;;;1.63;;
7377;SDS011;3730;50.856;12.776;2023-03-13T15:16:00;2.70;;;1.70;;
7377;SDS011;3730;50.856;12.776;2023-03-13T15:18:28;1.90;;;1.63;;
7377;SDS011;3730;50.856;12.776;2023-03-13T15:20:58;1.57;;;1.47;;
7377;SDS011;3730;50.856;12.776;2023-03-13T15:23:38;2.70;;;1.47;;
7377;SDS011;3730;50.856;12.776;2023-03-13T15:26:05;5.50;;;2.00;;
7377;SDS011;3730;50.856;12.776;2023-03-13T15:28:31;3.07;;;1.67;;
7377;SDS011;3730;50.856;12.776;2023-03-13T15:30:57;1.80;;;1.70;;
7377;SDS011;3730;50.856;12.776;2023-03-13T15:33:25;2.00;;;1.80;;
7377;SDS011;3730;50.856;12.776;2023-03-13T15:35:51;3.20;;;1.60;;
7377;SDS011;3730;50.856;12.776;2023-03-13T15:38:18;2.03;;;1.60;;
7377;SDS011;3730;50.856;12.776;2023-03-13T15:40:44;2.37;;;1.83;;
7377;SDS011;3730;50.856;12.776;2023-03-13T15:43:11;2.83;;;1.87;;
7377;SDS011;3730;50.856;12.776;2023-03-13T15:45:38;1.60;;;1.50;;
7377;SDS011;3730;50.856;12.776;2023-03-13T15:48:11;2.33;;;1.73;;
7377;SDS011;3730;50.856;12.776;2023-03-13T15:50:39;1.63;;;1.53;;
7377;SDS011;3730;50.856;12.776;2023-03-13T15:53:18;1.73;;;1.60;;
7377;SDS011;3730;50.856;12.776;2023-03-13T15:55:47;1.83;;;1.73;;
7377;SDS011;3730;50.856;12.776;2023-03-13T15:58:13;3.70;;;1.63;;
7377;SDS011;3730;50.856;12.776;2023-03-13T16:00:40;2.23;;;2.00;;
7377;SDS011;3730;50.856;12.776;2023-03-13T16:03:12;3.03;;;2.27;;
7377;SDS011;3730;50.856;12.776;2023-03-13T16:05:39;2.23;;;1.80;;
7377;SDS011;3730;50.856;12.776;2023-03-13T16:08:05;2.10;;;1.90;;
7377;SDS011;3730;50.856;12.776;2023-03-13T16:10:31;2.73;;;2.10;;
7377;SDS011;3730;50.856;12.776;2023-03-13T16:12:57;2.20;;;2.00;;
7377;SDS011;3730;50.856;12.776;2023-03-13T16:15:23;3.53;;;2.10;;
7377;SDS011;3730;50.856;12.776;2023-03-13T16:17:49;2.50;;;2.10;;
7377;SDS011;3730;50.856;12.776;2023-03-13T16:20:16;3.00;;;2.40;;
7377;SDS011;3730;50.856;12.776;2023-03-13T16:22:42;3.33;;;2.00;;
7377;SDS011;3730;50.856;12.776;2023-03-13T16:25:09;3.80;;;1.83;;
7377;SDS011;3730;50.856;12.776;2023-03-13T16:27:35;4.43;;;1.70;;
7377;SDS011;3730;50.856;12.776;2023-03-13T16:30:01;2.43;;;1.90;;
7377;SDS011;3730;50.856;12.776;2023-03-13T16:32:28;2.20;;;2.00;;
7377;SDS011;3730;50.856;12.776;2023-03-13T16:34:54;3.20;;;2.60;;